Marlinton, West Virginia
Current Conditions -  °F | °C
As of 6:15 AM on Saturday 25 Oct 2014 (Local Time) from KHSP Reporting Station
Clear Clear  
Wind Chill: 37°   Ceiling: Unl
Heat Index: 43°   Visibility: 10mi
Dew Point: 34°   Wind: 9mph
Humidity: 72%   Direction: 300°WNW
Pressure: 30.01"   Gusts: NA
Location:  38.22°N, 80.09°W
Report Text: KHSP 251015Z AUTO 30008KT 10SM CLR 06/01 A3001 RMK AO2 T00600013
Loading
Personal Weather Stations






























Interactive Weather Map New forecast layout! Learn more

10-Day Weather Forecast

Advertisements
Track Severe Weather on mobile